sensor_id;sensor_type;location;lat;lon;timestamp;temperature;humidity
12166;DHT22;6146;48.128;11.476;2023-02-11T00:00:55;-2.00;99.90
12166;DHT22;6146;48.128;11.476;2023-02-11T00:03:21;-2.00;99.90
12166;DHT22;6146;48.128;11.476;2023-02-11T00:05:59;-2.00;99.90
12166;DHT22;6146;48.128;11.476;2023-02-11T00:08:25;-2.10;99.90
12166;DHT22;6146;48.128;11.476;2023-02-11T00:10:54;-2.10;99.90
12166;DHT22;6146;48.128;11.476;2023-02-11T00:13:20;-2.00;99.90
12166;DHT22;6146;48.128;11.476;2023-02-11T00:15:46;-2.00;99.90
12166;DHT22;6146;48.128;11.476;2023-02-11T00:18:12;-2.00;99.90
12166;DHT22;6146;48.128;11.476;2023-02-11T00:20:38;-2.00;99.90
12166;DHT22;6146;48.128;11.476;2023-02-11T00:23:04;-2.00;99.90
12166;DHT22;6146;48.128;11.476;2023-02-11T00:25:29;-2.00;99.90
12166;DHT22;6146;48.128;11.476;2023-02-11T00:27:55;-1.90;99.90
12166;DHT22;6146;48.128;11.476;2023-02-11T00:30:21;-1.90;99.90
12166;DHT22;6146;48.128;11.476;2023-02-11T00:32:46;-1.80;99.90
12166;DHT22;6146;48.128;11.476;2023-02-11T00:35:12;-1.80;99.90
12166;DHT22;6146;48.128;11.476;2023-02-11T00:37:37;-1.80;99.90
12166;DHT22;6146;48.128;11.476;2023-02-11T00:40:04;-1.80;99.90
12166;DHT22;6146;48.128;11.476;2023-02-11T00:42:29;-1.70;99.90
12166;DHT22;6146;48.128;11.476;2023-02-11T00:44:55;-1.70;99.90
12166;DHT22;6146;48.128;11.476;2023-02-11T00:47:21;-1.70;99.90
12166;DHT22;6146;48.128;11.476;2023-02-11T00:49:46;-1.70;99.90
12166;DHT22;6146;48.128;11.476;2023-02-11T00:52:12;-1.60;99.90
12166;DHT22;6146;48.128;11.476;2023-02-11T00:54:37;-1.60;99.90
12166;DHT22;6146;48.128;11.476;2023-02-11T00:57:03;-1.50;99.90
12166;DHT22;6146;48.128;11.476;2023-02-11T00:59:28;-1.50;99.90
12166;DHT22;6146;48.128;11.476;2023-02-11T01:01:54;-1.50;99.90
12166;DHT22;6146;48.128;11.476;2023-02-11T01:04:20;-1.50;99.90
12166;DHT22;6146;48.128;11.476;2023-02-11T01:06:45;-1.50;99.90
12166;DHT22;6146;48.128;11.476;2023-02-11T01:09:11;-1.60;99.90
12166;DHT22;6146;48.128;11.476;2023-02-11T01:11:36;-1.60;99.90
12166;DHT22;6146;48.128;11.476;2023-02-11T01:14:02;-1.60;99.90
12166;DHT22;6146;48.128;11.476;2023-02-11T01:16:28;-1.60;99.90
12166;DHT22;6146;48.128;11.476;2023-02-11T01:18:53;-1.60;99.90
12166;DHT22;6146;48.128;11.476;2023-02-11T01:21:19;-1.50;99.90
12166;DHT22;6146;48.128;11.476;2023-02-11T01:23:45;-1.50;99.90
12166;DHT22;6146;48.128;11.476;2023-02-11T01:26:10;-1.50;99.90
12166;DHT22;6146;48.128;11.476;2023-02-11T01:28:36;-1.50;99.90
12166;DHT22;6146;48.128;11.476;2023-02-11T01:31:02;-1.50;99.90
12166;DHT22;6146;48.128;11.476;2023-02-11T01:33:28;-1.50;99.90
12166;DHT22;6146;48.128;11.476;2023-02-11T01:35:54;-1.50;99.90
12166;DHT22;6146;48.128;11.476;2023-02-11T01:38:24;-1.50;99.90
12166;DHT22;6146;48.128;11.476;2023-02-11T01:40:53;-1.50;99.90
12166;DHT22;6146;48.128;11.476;2023-02-11T01:43:19;-1.50;99.90
12166;DHT22;6146;48.128;11.476;2023-02-11T01:48:14;-1.60;99.90
12166;DHT22;6146;48.128;11.476;2023-02-11T01:50:45;-1.60;99.90
12166;DHT22;6146;48.128;11.476;2023-02-11T01:53:12;-1.60;99.90
12166;DHT22;6146;48.128;11.476;2023-02-11T01:55:57;-1.70;99.90
12166;DHT22;6146;48.128;11.476;2023-02-11T01:58:43;-1.70;99.90
12166;DHT22;6146;48.128;11.476;2023-02-11T02:01:12;-1.70;99.90
12166;DHT22;6146;48.128;11.476;2023-02-11T02:03:42;-1.60;99.90
12166;DHT22;6146;48.128;11.476;2023-02-11T02:06:17;-1.70;99.90
12166;DHT22;6146;48.128;11.476;2023-02-11T02:08:56;-1.70;99.90
12166;DHT22;6146;48.128;11.476;2023-02-11T02:11:22;-1.70;99.90
12166;DHT22;6146;48.128;11.476;2023-02-11T02:13:47;-1.70;99.90
12166;DHT22;6146;48.128;11.476;2023-02-11T02:16:16;-1.70;99.90
12166;DHT22;6146;48.128;11.476;2023-02-11T02:22:11;-1.70;99.90
12166;DHT22;6146;48.128;11.476;2023-02-11T02:24:50;-1.70;99.90
12166;DHT22;6146;48.128;11.476;2023-02-11T02:27:36;-1.70;99.90
12166;DHT22;6146;48.128;11.476;2023-02-11T02:38:13;-1.80;99.90
12166;DHT22;6146;48.128;11.476;2023-02-11T02:40:54;-1.80;99.90
12166;DHT22;6146;48.128;11.476;2023-02-11T02:43:22;-1.80;99.90
12166;DHT22;6146;48.128;11.476;2023-02-11T02:45:48;-1.80;99.90
12166;DHT22;6146;48.128;11.476;2023-02-11T02:50:49;-1.80;99.90
12166;DHT22;6146;48.128;11.476;2023-02-11T02:53:23;-1.80;99.90
12166;DHT22;6146;48.128;11.476;2023-02-11T02:56:08;-1.80;99.90
12166;DHT22;6146;48.128;11.476;2023-02-11T03:04:05;-1.70;99.90
12166;DHT22;6146;48.128;11.476;2023-02-11T03:06:44;-1.70;99.90
12166;DHT22;6146;48.128;11.476;2023-02-11T03:09:18;-1.70;99.90
12166;DHT22;6146;48.128;11.476;2023-02-11T03:11:47;-1.80;99.90
12166;DHT22;6146;48.128;11.476;2023-02-11T03:14:15;-1.80;99.90
12166;DHT22;6146;48.128;11.476;2023-02-11T03:16:42;-1.80;99.90
12166;DHT22;6146;48.128;11.476;2023-02-11T03:21:39;-1.80;99.90
12166;DHT22;6146;48.128;11.476;2023-02-11T03:24:09;-1.80;99.90
12166;DHT22;6146;48.128;11.476;2023-02-11T03:26:39;-1.80;99.90
12166;DHT22;6146;48.128;11.476;2023-02-11T03:29:33;-1.80;99.90
12166;DHT22;6146;48.128;11.476;2023-02-11T03:37:34;-1.70;99.90
12166;DHT22;6146;48.128;11.476;2023-02-11T03:40:08;-1.70;99.90
12166;DHT22;6146;48.128;11.476;2023-02-11T03:42:53;-1.70;99.90
12166;DHT22;6146;48.128;11.476;2023-02-11T03:45:22;-1.60;99.90
12166;DHT22;6146;48.128;11.476;2023-02-11T03:47:57;-1.60;99.90
12166;DHT22;6146;48.128;11.476;2023-02-11T03:50:25;-1.70;99.90
12166;DHT22;6146;48.128;11.476;2023-02-11T03:52:53;-1.60;99.90
12166;DHT22;6146;48.128;11.476;2023-02-11T03:55:22;-1.70;99.90
12166;DHT22;6146;48.128;11.476;2023-02-11T03:57:50;-1.70;99.90
12166;DHT22;6146;48.128;11.476;2023-02-11T04:00:16;-1.70;99.90
12166;DHT22;6146;48.128;11.476;2023-02-11T04:02:42;-1.70;99.90
12166;DHT22;6146;48.128;11.476;2023-02-11T04:05:10;-1.70;99.90
12166;DHT22;6146;48.128;11.476;2023-02-11T04:07:36;-1.80;99.90
12166;DHT22;6146;48.128;11.476;2023-02-11T04:10:02;-1.80;99.90
12166;DHT22;6146;48.128;11.476;2023-02-11T04:12:28;-1.80;99.90
12166;DHT22;6146;48.128;11.476;2023-02-11T04:14:53;-1.80;99.90
12166;DHT22;6146;48.128;11.476;2023-02-11T04:17:19;-1.80;99.90
12166;DHT22;6146;48.128;11.476;2023-02-11T04:19:44;-1.80;99.90
12166;DHT22;6146;48.128;11.476;2023-02-11T04:22:10;-1.80;99.90
12166;DHT22;6146;48.128;11.476;2023-02-11T04:24:36;-1.80;99.90
12166;DHT22;6146;48.128;11.476;2023-02-11T04:27:02;-1.80;99.90
12166;DHT22;6146;48.128;11.476;2023-02-11T04:29:27;-1.80;99.90
12166;DHT22;6146;48.128;11.476;2023-02-11T04:31:53;-1.80;99.90
12166;DHT22;6146;48.128;11.476;2023-02-11T04:34:19;-1.80;99.90
12166;DHT22;6146;48.128;11.476;2023-02-11T04:36:45;-1.80;99.90
12166;DHT22;6146;48.128;11.476;2023-02-11T04:39:10;-1.80;99.90
12166;DHT22;6146;48.128;11.476;2023-02-11T04:41:36;-1.80;99.90
12166;DHT22;6146;48.128;11.476;2023-02-11T04:44:01;-1.90;99.90
12166;DHT22;6146;48.128;11.476;2023-02-11T04:46:27;-1.90;99.90
12166;DHT22;6146;48.128;11.476;2023-02-11T04:48:53;-1.90;99.90
12166;DHT22;6146;48.128;11.476;2023-02-11T04:51:18;-2.00;99.90
12166;DHT22;6146;48.128;11.476;2023-02-11T04:53:44;-2.10;99.90
12166;DHT22;6146;48.128;11.476;2023-02-11T04:56:09;-2.10;99.90
12166;DHT22;6146;48.128;11.476;2023-02-11T04:58:35;-2.20;99.90
12166;DHT22;6146;48.128;11.476;2023-02-11T05:01:08;-2.20;99.90
12166;DHT22;6146;48.128;11.476;2023-02-11T05:03:34;-2.30;99.90
12166;DHT22;6146;48.128;11.476;2023-02-11T05:06:00;-2.30;99.90
12166;DHT22;6146;48.128;11.476;2023-02-11T05:08:26;-2.40;99.90
12166;DHT22;6146;48.128;11.476;2023-02-11T05:10:52;-2.40;99.90
12166;DHT22;6146;48.128;11.476;2023-02-11T05:13:17;-2.50;99.90
12166;DHT22;6146;48.128;11.476;2023-02-11T05:15:43;-2.50;99.90
12166;DHT22;6146;48.128;11.476;2023-02-11T05:18:08;-2.40;99.90
12166;DHT22;6146;48.128;11.476;2023-02-11T05:20:37;-2.40;99.90
12166;DHT22;6146;48.128;11.476;2023-02-11T05:23:02;-2.30;99.90
12166;DHT22;6146;48.128;11.476;2023-02-11T05:25:28;-2.20;99.90
12166;DHT22;6146;48.128;11.476;2023-02-11T05:27:53;-2.10;99.90
12166;DHT22;6146;48.128;11.476;2023-02-11T05:30:19;-2.00;99.90
12166;DHT22;6146;48.128;11.476;2023-02-11T05:32:44;-1.90;99.90
12166;DHT22;6146;48.128;11.476;2023-02-11T05:35:10;-1.80;99.90
12166;DHT22;6146;48.128;11.476;2023-02-11T05:37:36;-1.70;99.90
12166;DHT22;6146;48.128;11.476;2023-02-11T05:40:01;-1.60;99.90
12166;DHT22;6146;48.128;11.476;2023-02-11T05:42:27;-1.50;99.90
12166;DHT22;6146;48.128;11.476;2023-02-11T05:44:52;-1.50;99.90
12166;DHT22;6146;48.128;11.476;2023-02-11T05:47:18;-1.40;99.90
12166;DHT22;6146;48.128;11.476;2023-02-11T05:49:43;-1.30;99.90
12166;DHT22;6146;48.128;11.476;2023-02-11T05:52:09;-1.30;99.90
12166;DHT22;6146;48.128;11.476;2023-02-11T05:54:34;-1.20;99.90
12166;DHT22;6146;48.128;11.476;2023-02-11T05:57:00;-1.20;99.90
12166;DHT22;6146;48.128;11.476;2023-02-11T05:59:25;-1.20;99.90
12166;DHT22;6146;48.128;11.476;2023-02-11T06:01:51;-1.20;99.90
12166;DHT22;6146;48.128;11.476;2023-02-11T06:04:16;-1.10;99.90
12166;DHT22;6146;48.128;11.476;2023-02-11T06:06:42;-1.10;99.90
12166;DHT22;6146;48.128;11.476;2023-02-11T06:09:09;-1.10;99.90
12166;DHT22;6146;48.128;11.476;2023-02-11T06:11:35;-1.10;99.90
12166;DHT22;6146;48.128;11.476;2023-02-11T06:14:00;-1.00;99.90
12166;DHT22;6146;48.128;11.476;2023-02-11T06:16:26;-1.00;99.90
12166;DHT22;6146;48.128;11.476;2023-02-11T06:18:51;-1.00;99.90
12166;DHT22;6146;48.128;11.476;2023-02-11T06:21:17;-0.90;99.90
12166;DHT22;6146;48.128;11.476;2023-02-11T06:23:42;-0.80;99.90
12166;DHT22;6146;48.128;11.476;2023-02-11T06:26:19;-1.90;99.90
12166;DHT22;6146;48.128;11.476;2023-02-11T06:28:45;-0.70;99.90
12166;DHT22;6146;48.128;11.476;2023-02-11T06:31:11;-0.60;99.90
12166;DHT22;6146;48.128;11.476;2023-02-11T06:33:37;-0.50;99.90
12166;DHT22;6146;48.128;11.476;2023-02-11T06:36:03;-0.40;99.90
12166;DHT22;6146;48.128;11.476;2023-02-11T06:38:29;-0.30;99.90
12166;DHT22;6146;48.128;11.476;2023-02-11T06:40:55;-0.30;99.90
12166;DHT22;6146;48.128;11.476;2023-02-11T06:43:20;-0.30;99.90
12166;DHT22;6146;48.128;11.476;2023-02-11T06:45:52;-0.20;99.90
12166;DHT22;6146;48.128;11.476;2023-02-11T06:48:18;-0.10;99.90
12166;DHT22;6146;48.128;11.476;2023-02-11T06:50:44;-0.10;99.90
12166;DHT22;6146;48.128;11.476;2023-02-11T06:53:09;0.00;99.90
12166;DHT22;6146;48.128;11.476;2023-02-11T06:55:35;0.10;99.90
12166;DHT22;6146;48.128;11.476;2023-02-11T06:58:01;0.20;99.90
12166;DHT22;6146;48.128;11.476;2023-02-11T07:00:26;0.20;99.90
12166;DHT22;6146;48.128;11.476;2023-02-11T07:02:53;0.30;99.90
12166;DHT22;6146;48.128;11.476;2023-02-11T07:05:19;0.50;99.90
12166;DHT22;6146;48.128;11.476;2023-02-11T07:07:45;0.60;99.90
12166;DHT22;6146;48.128;11.476;2023-02-11T07:10:11;0.70;99.90
12166;DHT22;6146;48.128;11.476;2023-02-11T07:12:37;0.80;99.90
12166;DHT22;6146;48.128;11.476;2023-02-11T07:15:03;0.90;99.90
12166;DHT22;6146;48.128;11.476;2023-02-11T07:17:28;0.90;99.90
12166;DHT22;6146;48.128;11.476;2023-02-11T07:19:54;0.90;99.90
12166;DHT22;6146;48.128;11.476;2023-02-11T07:22:20;1.00;99.90
12166;DHT22;6146;48.128;11.476;2023-02-11T07:24:45;1.00;99.90
12166;DHT22;6146;48.128;11.476;2023-02-11T07:27:11;1.00;99.90
12166;DHT22;6146;48.128;11.476;2023-02-11T07:29:37;1.00;99.90
12166;DHT22;6146;48.128;11.476;2023-02-11T07:32:02;1.00;99.90
12166;DHT22;6146;48.128;11.476;2023-02-11T07:34:28;1.70;99.90
12166;DHT22;6146;48.128;11.476;2023-02-11T07:36:53;0.90;99.90
12166;DHT22;6146;48.128;11.476;2023-02-11T07:39:19;0.90;99.90
12166;DHT22;6146;48.128;11.476;2023-02-11T07:41:46;0.90;99.90
12166;DHT22;6146;48.128;11.476;2023-02-11T07:44:14;0.80;99.90
12166;DHT22;6146;48.128;11.476;2023-02-11T07:46:39;0.80;99.90
12166;DHT22;6146;48.128;11.476;2023-02-11T07:49:09;0.90;99.90
12166;DHT22;6146;48.128;11.476;2023-02-11T07:51:34;1.10;99.90
12166;DHT22;6146;48.128;11.476;2023-02-11T07:54:00;1.20;99.90
12166;DHT22;6146;48.128;11.476;2023-02-11T07:56:26;1.40;99.90
12166;DHT22;6146;48.128;11.476;2023-02-11T07:58:52;1.50;99.90
12166;DHT22;6146;48.128;11.476;2023-02-11T08:01:23;1.60;99.90
12166;DHT22;6146;48.128;11.476;2023-02-11T08:03:51;1.70;99.90
12166;DHT22;6146;48.128;11.476;2023-02-11T08:06:18;1.70;99.90
12166;DHT22;6146;48.128;11.476;2023-02-11T08:08:45;1.90;99.90
12166;DHT22;6146;48.128;11.476;2023-02-11T08:11:12;2.00;99.90
12166;DHT22;6146;48.128;11.476;2023-02-11T08:13:38;2.00;99.90
12166;DHT22;6146;48.128;11.476;2023-02-11T08:16:05;2.20;99.90
12166;DHT22;6146;48.128;11.476;2023-02-11T08:18:32;2.40;99.90
12166;DHT22;6146;48.128;11.476;2023-02-11T08:21:08;2.60;99.90
12166;DHT22;6146;48.128;11.476;2023-02-11T08:23:38;2.90;99.90
12166;DHT22;6146;48.128;11.476;2023-02-11T08:26:07;3.30;99.90
12166;DHT22;6146;48.128;11.476;2023-02-11T08:28:37;3.60;99.90
12166;DHT22;6146;48.128;11.476;2023-02-11T08:31:13;3.80;99.90
12166;DHT22;6146;48.128;11.476;2023-02-11T08:33:39;4.20;99.90
12166;DHT22;6146;48.128;11.476;2023-02-11T08:36:09;4.30;99.90
12166;DHT22;6146;48.128;11.476;2023-02-11T08:38:36;4.40;99.90
12166;DHT22;6146;48.128;11.476;2023-02-11T08:41:02;4.50;99.90
12166;DHT22;6146;48.128;11.476;2023-02-11T08:43:28;4.60;99.90
12166;DHT22;6146;48.128;11.476;2023-02-11T08:45:53;4.70;99.90
12166;DHT22;6146;48.128;11.476;2023-02-11T08:48:19;4.80;99.90
12166;DHT22;6146;48.128;11.476;2023-02-11T08:50:45;4.80;99.90
12166;DHT22;6146;48.128;11.476;2023-02-11T08:53:10;4.90;99.90
12166;DHT22;6146;48.128;11.476;2023-02-11T08:55:36;5.00;99.90
12166;DHT22;6146;48.128;11.476;2023-02-11T08:58:01;4.90;99.90
12166;DHT22;6146;48.128;11.476;2023-02-11T09:00:27;4.90;99.90
12166;DHT22;6146;48.128;11.476;2023-02-11T09:02:52;5.00;99.90
12166;DHT22;6146;48.128;11.476;2023-02-11T09:05:18;5.20;99.90
12166;DHT22;6146;48.128;11.476;2023-02-11T09:07:43;5.30;99.90
12166;DHT22;6146;48.128;11.476;2023-02-11T09:10:09;5.50;99.90
12166;DHT22;6146;48.128;11.476;2023-02-11T09:12:35;5.50;99.90
12166;DHT22;6146;48.128;11.476;2023-02-11T09:15:00;5.40;99.90
12166;DHT22;6146;48.128;11.476;2023-02-11T09:17:26;5.30;99.90
12166;DHT22;6146;48.128;11.476;2023-02-11T09:19:51;5.30;99.90
12166;DHT22;6146;48.128;11.476;2023-02-11T09:22:17;5.10;99.90
12166;DHT22;6146;48.128;11.476;2023-02-11T09:24:42;5.00;99.90
12166;DHT22;6146;48.128;11.476;2023-02-11T09:27:08;5.10;99.90
12166;DHT22;6146;48.128;11.476;2023-02-11T09:29:34;5.10;99.90
12166;DHT22;6146;48.128;11.476;2023-02-11T09:31:59;5.10;99.90
12166;DHT22;6146;48.128;11.476;2023-02-11T09:34:25;5.10;99.90
12166;DHT22;6146;48.128;11.476;2023-02-11T09:36:50;5.20;99.90
12166;DHT22;6146;48.128;11.476;2023-02-11T09:39:17;5.40;99.90
12166;DHT22;6146;48.128;11.476;2023-02-11T09:44:26;5.50;99.90
12166;DHT22;6146;48.128;11.476;2023-02-11T09:46:56;5.70;99.90
12166;DHT22;6146;48.128;11.476;2023-02-11T09:55:00;6.30;99.90
12166;DHT22;6146;48.128;11.476;2023-02-11T09:57:36;7.40;99.90
12166;DHT22;6146;48.128;11.476;2023-02-11T10:00:36;10.40;97.30
12166;DHT22;6146;48.128;11.476;2023-02-11T10:13:42;12.10;68.80
12166;DHT22;6146;48.128;11.476;2023-02-11T10:16:17;11.30;72.00
12166;DHT22;6146;48.128;11.476;2023-02-11T10:18:56;10.90;73.80
12166;DHT22;6146;48.128;11.476;2023-02-11T10:24:16;9.70;76.90
12166;DHT22;6146;48.128;11.476;2023-02-11T10:26:42;9.50;79.30
12166;DHT22;6146;48.128;11.476;2023-02-11T10:29:39;9.40;79.40
12166;DHT22;6146;48.128;11.476;2023-02-11T10:32:56;9.20;80.30
12166;DHT22;6146;48.128;11.476;2023-02-11T10:35:12;9.40;81.00
12166;DHT22;6146;48.128;11.476;2023-02-11T10:37:39;9.50;79.70
12166;DHT22;6146;48.128;11.476;2023-02-11T10:40:11;10.10;78.90
12166;DHT22;6146;48.128;11.476;2023-02-11T10:42:37;10.60;76.80
12166;DHT22;6146;48.128;11.476;2023-02-11T10:45:04;11.20;73.90
12166;DHT22;6146;48.128;11.476;2023-02-11T10:47:35;11.90;69.70
12166;DHT22;6146;48.128;11.476;2023-02-11T10:50:24;11.50;68.90
12166;DHT22;6146;48.128;11.476;2023-02-11T10:52:50;11.10;69.90
12166;DHT22;6146;48.128;11.476;2023-02-11T10:55:25;10.70;70.60
12166;DHT22;6146;48.128;11.476;2023-02-11T10:57:54;10.50;71.10
12166;DHT22;6146;48.128;11.476;2023-02-11T11:00:34;10.50;72.50
12166;DHT22;6146;48.128;11.476;2023-02-11T11:03:03;10.70;70.70
12166;DHT22;6146;48.128;11.476;2023-02-11T11:05:36;11.00;69.60
12166;DHT22;6146;48.128;11.476;2023-02-11T11:08:06;10.70;68.80
12166;DHT22;6146;48.128;11.476;2023-02-11T11:10:41;10.50;69.60
12166;DHT22;6146;48.128;11.476;2023-02-11T11:16:23;9.90;70.60
12166;DHT22;6146;48.128;11.476;2023-02-11T11:18:52;9.90;71.00
12166;DHT22;6146;48.128;11.476;2023-02-11T11:21:19;9.70;71.50
12166;DHT22;6146;48.128;11.476;2023-02-11T11:23:57;9.60;72.50
12166;DHT22;6146;48.128;11.476;2023-02-11T11:26:25;9.70;73.60
12166;DHT22;6146;48.128;11.476;2023-02-11T11:29:16;9.80;72.60
12166;DHT22;6146;48.128;11.476;2023-02-11T11:31:53;9.60;70.30
12166;DHT22;6146;48.128;11.476;2023-02-11T11:36:54;9.40;67.90
12166;DHT22;6146;48.128;11.476;2023-02-11T11:39:26;9.30;66.90
12166;DHT22;6146;48.128;11.476;2023-02-11T11:41:58;9.40;66.30
12166;DHT22;6146;48.128;11.476;2023-02-11T11:44:30;9.50;67.30
12166;DHT22;6146;48.128;11.476;2023-02-11T11:49:43;11.30;60.50
12166;DHT22;6146;48.128;11.476;2023-02-11T11:54:49;11.80;59.70
12166;DHT22;6146;48.128;11.476;2023-02-11T11:57:22;11.50;58.20
12166;DHT22;6146;48.128;11.476;2023-02-11T11:59:49;11.00;59.60
12166;DHT22;6146;48.128;11.476;2023-02-11T12:05:21;10.80;60.20
12166;DHT22;6146;48.128;11.476;2023-02-11T12:08:34;10.80;60.40
12166;DHT22;6146;48.128;11.476;2023-02-11T12:11:06;10.60;61.20
12166;DHT22;6146;48.128;11.476;2023-02-11T12:19:25;9.80;64.00
12166;DHT22;6146;48.128;11.476;2023-02-11T12:22:04;9.30;64.10
12166;DHT22;6146;48.128;11.476;2023-02-11T12:27:49;9.40;65.50
12166;DHT22;6146;48.128;11.476;2023-02-11T12:38:56;10.20;62.80
12166;DHT22;6146;48.128;11.476;2023-02-11T12:41:30;10.00;63.60
12166;DHT22;6146;48.128;11.476;2023-02-11T12:47:24;9.90;64.80
12166;DHT22;6146;48.128;11.476;2023-02-11T12:50:12;9.90;65.40
12166;DHT22;6146;48.128;11.476;2023-02-11T12:55:22;10.20;63.50
12166;DHT22;6146;48.128;11.476;2023-02-11T12:57:50;10.10;62.30
12166;DHT22;6146;48.128;11.476;2023-02-11T13:00:22;9.90;63.40
12166;DHT22;6146;48.128;11.476;2023-02-11T13:08:22;10.00;64.40
12166;DHT22;6146;48.128;11.476;2023-02-11T13:10:54;10.00;62.90
12166;DHT22;6146;48.128;11.476;2023-02-11T13:13:30;9.80;63.60
12166;DHT22;6146;48.128;11.476;2023-02-11T13:16:06;9.90;63.40
12166;DHT22;6146;48.128;11.476;2023-02-11T13:18:49;10.10;63.50
12166;DHT22;6146;48.128;11.476;2023-02-11T13:23:46;12.90;57.00
12166;DHT22;6146;48.128;11.476;2023-02-11T13:28:50;14.50;52.70
12166;DHT22;6146;48.128;11.476;2023-02-11T13:31:17;15.00;51.10
12166;DHT22;6146;48.128;11.476;2023-02-11T13:33:45;15.90;51.20
12166;DHT22;6146;48.128;11.476;2023-02-11T13:36:17;17.00;46.70
12166;DHT22;6146;48.128;11.476;2023-02-11T13:38:57;18.30;44.60
12166;DHT22;6146;48.128;11.476;2023-02-11T13:44:02;20.10;38.60
12166;DHT22;6146;48.128;11.476;2023-02-11T13:49:24;20.00;36.60
12166;DHT22;6146;48.128;11.476;2023-02-11T13:51:52;19.40;37.00
12166;DHT22;6146;48.128;11.476;2023-02-11T13:54:26;18.70;38.30
12166;DHT22;6146;48.128;11.476;2023-02-11T13:57:21;17.30;40.40
12166;DHT22;6146;48.128;11.476;2023-02-11T13:59:52;16.00;42.50
12166;DHT22;6146;48.128;11.476;2023-02-11T14:10:57;13.20;46.60
12166;DHT22;6146;48.128;11.476;2023-02-11T14:13:24;12.90;47.50
12166;DHT22;6146;48.128;11.476;2023-02-11T14:16:22;12.80;48.10
12166;DHT22;6146;48.128;11.476;2023-02-11T14:21:32;12.10;50.60
12166;DHT22;6146;48.128;11.476;2023-02-11T14:26:51;11.60;52.70
12166;DHT22;6146;48.128;11.476;2023-02-11T14:32:04;11.20;54.80
12166;DHT22;6146;48.128;11.476;2023-02-11T14:34:42;10.90;55.30
12166;DHT22;6146;48.128;11.476;2023-02-11T14:42:35;9.90;57.50
12166;DHT22;6146;48.128;11.476;2023-02-11T14:45:05;9.70;58.00
12166;DHT22;6146;48.128;11.476;2023-02-11T14:47:45;9.70;58.70
12166;DHT22;6146;48.128;11.476;2023-02-11T14:50:17;9.60;59.80
12166;DHT22;6146;48.128;11.476;2023-02-11T14:52:43;9.50;60.60
12166;DHT22;6146;48.128;11.476;2023-02-11T14:55:32;9.50;61.00
12166;DHT22;6146;48.128;11.476;2023-02-11T14:58:31;9.40;61.80
12166;DHT22;6146;48.128;11.476;2023-02-11T15:01:05;9.20;63.10
12166;DHT22;6146;48.128;11.476;2023-02-11T15:03:38;9.10;64.10
12166;DHT22;6146;48.128;11.476;2023-02-11T15:08:31;9.10;65.00
12166;DHT22;6146;48.128;11.476;2023-02-11T15:11:00;9.10;64.70
12166;DHT22;6146;48.128;11.476;2023-02-11T15:13:28;9.00;65.00
12166;DHT22;6146;48.128;11.476;2023-02-11T15:15:59;9.10;66.80
12166;DHT22;6146;48.128;11.476;2023-02-11T15:18:33;9.10;66.20
12166;DHT22;6146;48.128;11.476;2023-02-11T15:20:59;9.00;66.80
12166;DHT22;6146;48.128;11.476;2023-02-11T15:23:27;9.00;67.70
12166;DHT22;6146;48.128;11.476;2023-02-11T15:25:53;9.00;68.00
12166;DHT22;6146;48.128;11.476;2023-02-11T15:28:26;8.90;68.00
12166;DHT22;6146;48.128;11.476;2023-02-11T15:30:58;8.90;68.40
12166;DHT22;6146;48.128;11.476;2023-02-11T15:33:24;8.80;69.20
12166;DHT22;6146;48.128;11.476;2023-02-11T15:35:50;8.80;69.80
12166;DHT22;6146;48.128;11.476;2023-02-11T15:38:16;8.80;70.20
12166;DHT22;6146;48.128;11.476;2023-02-11T15:40:52;8.70;70.60
12166;DHT22;6146;48.128;11.476;2023-02-11T15:43:18;8.60;71.20
12166;DHT22;6146;48.128;11.476;2023-02-11T15:48:18;8.50;71.50
12166;DHT22;6146;48.128;11.476;2023-02-11T15:50:53;8.30;72.00
12166;DHT22;6146;48.128;11.476;2023-02-11T15:53:24;8.30;72.60
12166;DHT22;6146;48.128;11.476;2023-02-11T15:55:54;8.20;74.30
12166;DHT22;6146;48.128;11.476;2023-02-11T15:58:25;8.10;74.10
12166;DHT22;6146;48.128;11.476;2023-02-11T16:00:51;8.00;74.60
12166;DHT22;6146;48.128;11.476;2023-02-11T16:03:25;7.90;75.30
12166;DHT22;6146;48.128;11.476;2023-02-11T16:05:53;7.80;75.80
12166;DHT22;6146;48.128;11.476;2023-02-11T16:08:26;7.70;76.50
12166;DHT22;6146;48.128;11.476;2023-02-11T16:10:59;7.60;77.40
12166;DHT22;6146;48.128;11.476;2023-02-11T16:13:29;7.50;78.10
12166;DHT22;6146;48.128;11.476;2023-02-11T16:16:02;7.30;79.10
12166;DHT22;6146;48.128;11.476;2023-02-11T16:18:37;7.30;79.80
12166;DHT22;6146;48.128;11.476;2023-02-11T16:21:06;7.20;80.50
12166;DHT22;6146;48.128;11.476;2023-02-11T16:23:37;7.10;81.20
12166;DHT22;6146;48.128;11.476;2023-02-11T16:26:19;6.90;81.70
12166;DHT22;6146;48.128;11.476;2023-02-11T16:28:45;6.90;82.50
12166;DHT22;6146;48.128;11.476;2023-02-11T16:31:11;6.80;83.30
12166;DHT22;6146;48.128;11.476;2023-02-11T16:33:37;6.70;83.90
12166;DHT22;6146;48.128;11.476;2023-02-11T16:36:11;6.60;85.30
12166;DHT22;6146;48.128;11.476;2023-02-11T16:38:37;6.50;85.90
12166;DHT22;6146;48.128;11.476;2023-02-11T16:41:03;6.40;86.60
12166;DHT22;6146;48.128;11.476;2023-02-11T16:43:28;6.40;87.20
12166;DHT22;6146;48.128;11.476;2023-02-11T16:45:54;6.40;87.70
12166;DHT22;6146;48.128;11.476;2023-02-11T16:48:19;6.30;88.30
12166;DHT22;6146;48.128;11.476;2023-02-11T16:50:47;6.30;89.00
12166;DHT22;6146;48.128;11.476;2023-02-11T16:53:19;6.20;89.70
12166;DHT22;6146;48.128;11.476;2023-02-11T16:55:45;6.10;90.00
12166;DHT22;6146;48.128;11.476;2023-02-11T16:58:11;6.00;90.20
12166;DHT22;6146;48.128;11.476;2023-02-11T17:00:36;6.00;90.40
12166;DHT22;6146;48.128;11.476;2023-02-11T17:03:06;6.00;90.60
12166;DHT22;6146;48.128;11.476;2023-02-11T17:05:32;5.90;90.90
12166;DHT22;6146;48.128;11.476;2023-02-11T17:07:58;5.90;91.20
12166;DHT22;6146;48.128;11.476;2023-02-11T17:10:26;5.90;91.50
12166;DHT22;6146;48.128;11.476;2023-02-11T17:12:51;5.80;92.00
12166;DHT22;6146;48.128;11.476;2023-02-11T17:15:17;5.70;92.30
12166;DHT22;6146;48.128;11.476;2023-02-11T17:17:43;5.70;92.40
12166;DHT22;6146;48.128;11.476;2023-02-11T17:20:11;5.70;92.80
12166;DHT22;6146;48.128;11.476;2023-02-11T17:22:38;5.70;92.90
12166;DHT22;6146;48.128;11.476;2023-02-11T17:25:03;5.70;93.20
12166;DHT22;6146;48.128;11.476;2023-02-11T17:27:29;5.60;93.40
12166;DHT22;6146;48.128;11.476;2023-02-11T17:29:54;5.70;93.70
12166;DHT22;6146;48.128;11.476;2023-02-11T17:32:20;5.70;93.90
12166;DHT22;6146;48.128;11.476;2023-02-11T17:34:45;5.70;94.10
12166;DHT22;6146;48.128;11.476;2023-02-11T17:37:11;5.70;94.20
12166;DHT22;6146;48.128;11.476;2023-02-11T17:39:38;5.70;94.30
12166;DHT22;6146;48.128;11.476;2023-02-11T17:42:04;5.70;94.50
12166;DHT22;6146;48.128;11.476;2023-02-11T17:44:31;5.70;94.60
12166;DHT22;6146;48.128;11.476;2023-02-11T17:46:57;5.70;95.20
12166;DHT22;6146;48.128;11.476;2023-02-11T17:49:23;5.70;95.10
12166;DHT22;6146;48.128;11.476;2023-02-11T17:51:48;5.70;95.30
12166;DHT22;6146;48.128;11.476;2023-02-11T17:54:16;5.70;95.60
12166;DHT22;6146;48.128;11.476;2023-02-11T17:56:43;5.60;95.80
12166;DHT22;6146;48.128;11.476;2023-02-11T17:59:10;5.60;96.40
12166;DHT22;6146;48.128;11.476;2023-02-11T18:01:37;5.60;96.30